AirNav   Everest Fuels
 
 1307 users online  

3FL2 Florida Hospital-Fish Memorial Heliport
Orange City, Florida, USA

GOING TO ORANGE CITY?


FAA INFORMATION EFFECTIVE 30 JANUARY 2020

Location

FAA Identifier: 3FL2
Lat/Long: 28-54-53.0000N 081-17-05.0000W
28-54.883333N 081-17.083333W
28.9147222,-81.2847222
(estimated)
Elevation: 45 ft. / 14 m (estimated)
Variation: 04W (1995)
From city: 2 miles N of ORANGE CITY, FL
Time zone: UTC -5 (UTC -4 during Daylight Saving Time)
Zip code: 32763

Heliport Operations

Heliport use: Private use. Permission required prior to landing
Activation date: 03/1999
Control tower: no
ARTCC: JACKSONVILLE CENTER
FSS: SAINT PETERSBURG FLIGHT SERVICE STATION
Attendance: UNATNDD
Wind indicator: yes
Segmented circle: no

Heliport Communications

WX ASOS at SFB (9 nm S): PHONE 407-321-9384
WX AWOS-3 at DED (9 nm N): 119.575 (386-740-5811)
WX AWOS-3 at EVB (20 nm NE): 124.625 (386-409-4705)
WX ASOS at DAB (20 nm NE): PHONE 386-253-7469

Nearby radio navigation aids

VOR radial/distance  VOR name  Freq  Var
ORLr007/22.5ORLANDO VORTAC112.2000E
OMNr201/25.0ORMOND BEACH VORTAC112.6000E

Heliport Services

Runway Information

Helipad H1

Dimensions: 40 x 40 ft. / 12 x 12 m
Surface: concrete
Latitude: 28-54.905333N
Longitude: 081-17.112833W
Elevation: 45.0 ft.
Traffic pattern: leftleft

Heliport Ownership and Management from official FAA records

Ownership: Privately-owned
Owner: SW VOLUSIA HEALTH CARE CORP
1055 SAXON BLVD
ORANGE CITY, FL 32763
Phone (386) 917-5020
Manager: ROBERT DEININGER
1055 SAXON BLVD
ORANGE CITY, FL 32763
Phone (386) 917-5000

Additional Remarks

ADDNL CTC - MELANIE ROBINSEN, FAC DIR.
FOR CD CTC ORLANDO APCH AT 407-852-7553.

Instrument Procedures

There are no published instrument procedures at 3FL2.

Some nearby airports with instrument procedures:

KSFB - Orlando Sanford International Airport (9 nm S)
KDED - DeLand Municipal Airport-Sidney H Taylor Field (9 nm N)
X50 - Massey Ranch Airpark (19 nm E)
X23 - Umatilla Municipal Airport (19 nm W)
KEVB - New Smyrna Beach Municipal Airport (20 nm NE)
KDAB - Daytona Beach International Airport (20 nm NE)
X04 - Orlando Apopka Airport (20 nm SW)
 
Loc | Ops | Rwys | IFR | FBO | Links
Com | Nav | Svcs | Stats | Notes


 
Area around 3FL2 (Florida Hospital-Fish Memorial Heliport)
 
Road maps at: MapQuest Bing Google
 
Aerial photo
WARNING: Photo may not be current or correct
Aerial photo of 3FL2 (Florida Hospital-Fish Memorial Heliport)
Photo by Don F. Pease
Photo taken 17-Feb-2005
looking east.

Do you have a better or more recent aerial photo of Florida Hospital-Fish Memorial Heliport that you would like to share? If so, please send us your photo.

 
Sectional chart

 
Airport distance calculator
Flying to Florida Hospital-Fish Memorial Heliport? Find the distance to fly.

From to 3FL2

Sunrise and sunset
Times for 26-Feb-2020
 Local
(UTC-5)
 Zulu
(UTC)
Morning civil twilight06:3111:31
Sunrise06:5511:55
Sunset18:2223:22
Evening civil twilight18:4623:46

Current date and time
Zulu (UTC)  26-Feb-2020 14:24:12
Local (UTC-5)  26-Feb-2020 09:24:12
 
METAR
KDED 
9nm N 
261355Z AUTO 18006KT 10SM SCT110 22/15 A2990 RMK AO2
KSFB 
10nm S 
261353Z 18009KT 10SM FEW110 22/16 A2990 RMK AO2 SLP123 T02220156
KEVB 
20nm NE 
261347Z 22007KT 10SM CLR 21/15 A2991
KDAB 
20nm NE 
261353Z 22006KT 10SM SCT110 BKN250 22/17 A2991 RMK AO2 SLP126 T02220167
TAF
KSFB 
10nm S 
261129Z 2612/2712 17010KT P6SM SCT040 BKN090 OVC110 FM261900 22013KT P6SM VCTS BKN030CB FM270000 28011KT P6SM SHRA BKN030 OVC060 FM270600 32011KT P6SM SCT030 OVC120
KDAB 
20nm NE 
261129Z 2612/2712 20007KT P6SM BKN070 OVC100 FM261700 20011KT P6SM VCTS BKN035CB FM270000 26009KT P6SM SHRA BKN030 OVC070 FM270800 31009KT P6SM SCT035 OVC120
NOTAMs
Click for the latest NOTAMs
NOTAMs are issued by the DoD/FAA and will open in a separate window not controlled by AirNav.

 

 
 

Would you like to see your business listed on this page?

 If your business provides an interesting product or service to pilots, flight crews, aircraft, or users of the Florida Hospital-Fish Memorial Heliport, you should consider listing it here.  To start the listing process, click on the button below
 
Add a business
 

Other Pages about Florida Hospital-Fish Memorial Heliport

Update a link
 
Copyright © AirNav, LLC. All rights reserved. Privacy Policy  Contact